sensor_id;sensor_type;location;lat;lon;timestamp;pressure;altitude;pressure_sealevel;temperature;humidity
82379;BME280;72008;48.140;11.614;2024-02-15T00:00:51;95973.31;;;10.29;73.65
82379;BME280;72008;48.140;11.614;2024-02-15T00:01:52;95973.16;;;10.25;74.07
82379;BME280;72008;48.140;11.614;2024-02-15T00:02:52;95975.88;;;10.34;75.78
82379;BME280;72008;48.140;11.614;2024-02-15T00:03:53;95974.09;;;10.38;75.26
82379;BME280;72008;48.140;11.614;2024-02-15T00:04:58;95972.03;;;10.35;76.54
82379;BME280;72008;48.140;11.614;2024-02-15T00:05:59;95973.28;;;10.38;77.48
82379;BME280;72008;48.140;11.614;2024-02-15T00:06:59;95980.41;;;10.30;72.53
82379;BME280;72008;48.140;11.614;2024-02-15T00:08:00;95981.69;;;10.33;74.80
82379;BME280;72008;48.140;11.614;2024-02-15T00:09:00;95972.19;;;10.30;74.83
82379;BME280;72008;48.140;11.614;2024-02-15T00:10:20;95974.28;;;10.24;73.77
82379;BME280;72008;48.140;11.614;2024-02-15T00:11:20;95982.81;;;10.23;73.57
82379;BME280;72008;48.140;11.614;2024-02-15T00:12:21;95976.22;;;10.33;77.85
82379;BME280;72008;48.140;11.614;2024-02-15T00:13:21;95976.56;;;10.14;72.13
82379;BME280;72008;48.140;11.614;2024-02-15T00:14:22;95981.25;;;10.13;75.45
82379;BME280;72008;48.140;11.614;2024-02-15T00:15:22;95979.78;;;10.16;74.42
82379;BME280;72008;48.140;11.614;2024-02-15T00:16:23;95979.28;;;10.22;73.34
82379;BME280;72008;48.140;11.614;2024-02-15T00:17:24;95977.53;;;10.18;72.21
82379;BME280;72008;48.140;11.614;2024-02-15T00:18:24;95974.16;;;10.21;76.31
82379;BME280;72008;48.140;11.614;2024-02-15T00:19:24;95965.72;;;10.26;74.65
82379;BME280;72008;48.140;11.614;2024-02-15T00:20:25;95970.56;;;10.29;74.83
82379;BME280;72008;48.140;11.614;2024-02-15T00:21:25;95963.50;;;10.28;73.69
82379;BME280;72008;48.140;11.614;2024-02-15T00:22:26;95955.78;;;10.21;75.17
82379;BME280;72008;48.140;11.614;2024-02-15T00:23:26;95971.88;;;10.23;72.94
82379;BME280;72008;48.140;11.614;2024-02-15T00:24:26;95960.81;;;10.11;76.50
82379;BME280;72008;48.140;11.614;2024-02-15T00:25:27;95962.75;;;10.10;74.34
82379;BME280;72008;48.140;11.614;2024-02-15T00:26:27;95965.00;;;10.08;71.76
82379;BME280;72008;48.140;11.614;2024-02-15T00:27:28;95964.22;;;10.08;77.29
82379;BME280;72008;48.140;11.614;2024-02-15T00:28:28;95961.16;;;10.09;72.12
82379;BME280;72008;48.140;11.614;2024-02-15T00:29:28;95965.19;;;10.12;73.67
82379;BME280;72008;48.140;11.614;2024-02-15T00:30:29;95960.38;;;10.09;76.34
82379;BME280;72008;48.140;11.614;2024-02-15T00:31:29;95966.16;;;10.07;75.39
82379;BME280;72008;48.140;11.614;2024-02-15T00:32:30;95967.41;;;10.18;77.29
82379;BME280;72008;48.140;11.614;2024-02-15T00:33:30;95966.59;;;10.18;74.88
82379;BME280;72008;48.140;11.614;2024-02-15T00:34:31;95965.63;;;10.14;73.09
82379;BME280;72008;48.140;11.614;2024-02-15T00:35:31;95964.78;;;10.22;76.54
82379;BME280;72008;48.140;11.614;2024-02-15T00:36:32;95971.56;;;10.24;75.12
82379;BME280;72008;48.140;11.614;2024-02-15T00:37:32;95967.84;;;10.29;78.20
82379;BME280;72008;48.140;11.614;2024-02-15T00:38:33;95969.63;;;10.25;73.98
82379;BME280;72008;48.140;11.614;2024-02-15T00:39:33;95970.78;;;10.15;76.22
82379;BME280;72008;48.140;11.614;2024-02-15T00:40:37;95967.56;;;10.13;77.86
82379;BME280;72008;48.140;11.614;2024-02-15T00:41:38;95967.56;;;10.13;72.77
82379;BME280;72008;48.140;11.614;2024-02-15T00:42:38;95961.75;;;10.23;78.88
82379;BME280;72008;48.140;11.614;2024-02-15T00:43:38;95969.66;;;10.16;75.12
82379;BME280;72008;48.140;11.614;2024-02-15T00:44:43;95961.91;;;10.18;77.41
82379;BME280;72008;48.140;11.614;2024-02-15T00:45:44;95964.66;;;10.18;75.72
82379;BME280;72008;48.140;11.614;2024-02-15T00:46:44;95961.91;;;10.27;79.98
82379;BME280;72008;48.140;11.614;2024-02-15T00:47:45;95964.31;;;10.20;72.95
82379;BME280;72008;48.140;11.614;2024-02-15T00:48:45;95966.06;;;10.24;77.26
82379;BME280;72008;48.140;11.614;2024-02-15T00:49:45;95961.41;;;10.25;75.00
82379;BME280;72008;48.140;11.614;2024-02-15T00:50:46;95964.66;;;10.27;77.51
82379;BME280;72008;48.140;11.614;2024-02-15T00:51:46;95965.94;;;10.21;76.25
82379;BME280;72008;48.140;11.614;2024-02-15T00:52:47;95964.03;;;10.13;76.63
82379;BME280;72008;48.140;11.614;2024-02-15T00:53:47;95969.13;;;10.23;79.08
82379;BME280;72008;48.140;11.614;2024-02-15T00:54:48;95963.34;;;10.24;78.11
82379;BME280;72008;48.140;11.614;2024-02-15T00:55:48;95967.53;;;10.31;76.01
82379;BME280;72008;48.140;11.614;2024-02-15T00:56:48;95966.56;;;10.35;78.05
82379;BME280;72008;48.140;11.614;2024-02-15T00:57:49;95964.28;;;10.37;79.65
82379;BME280;72008;48.140;11.614;2024-02-15T00:58:49;95963.59;;;10.40;79.23
82379;BME280;72008;48.140;11.614;2024-02-15T00:59:50;95965.59;;;10.31;72.62
82379;BME280;72008;48.140;11.614;2024-02-15T01:00:50;95959.47;;;10.34;78.33
82379;BME280;72008;48.140;11.614;2024-02-15T01:01:50;95957.19;;;10.36;75.18
82379;BME280;72008;48.140;11.614;2024-02-15T01:02:51;95958.34;;;10.35;73.67
82379;BME280;72008;48.140;11.614;2024-02-15T01:03:51;95960.88;;;10.40;80.03
82379;BME280;72008;48.140;11.614;2024-02-15T01:04:52;95966.34;;;10.40;78.77
82379;BME280;72008;48.140;11.614;2024-02-15T01:05:52;95964.00;;;10.21;76.53
82379;BME280;72008;48.140;11.614;2024-02-15T01:06:53;95967.19;;;10.32;80.33
82379;BME280;72008;48.140;11.614;2024-02-15T01:07:53;95971.38;;;10.38;79.92
82379;BME280;72008;48.140;11.614;2024-02-15T01:08:53;95966.22;;;10.37;74.74
82379;BME280;72008;48.140;11.614;2024-02-15T01:09:54;95980.16;;;10.44;80.38
82379;BME280;72008;48.140;11.614;2024-02-15T01:10:56;95961.41;;;10.34;74.00
82379;BME280;72008;48.140;11.614;2024-02-15T01:11:56;95972.16;;;10.39;78.41
82379;BME280;72008;48.140;11.614;2024-02-15T01:12:57;95971.03;;;10.40;77.78
82379;BME280;72008;48.140;11.614;2024-02-15T01:13:58;95972.31;;;10.42;77.87
82379;BME280;72008;48.140;11.614;2024-02-15T01:14:58;95969.22;;;10.44;76.87
82379;BME280;72008;48.140;11.614;2024-02-15T01:15:59;95967.75;;;10.46;79.79
82379;BME280;72008;48.140;11.614;2024-02-15T01:16:59;95967.09;;;10.50;80.67
82379;BME280;72008;48.140;11.614;2024-02-15T01:18:00;95966.44;;;10.53;79.53
82379;BME280;72008;48.140;11.614;2024-02-15T01:19:00;95970.00;;;10.53;78.94
82379;BME280;72008;48.140;11.614;2024-02-15T01:20:01;95979.31;;;10.52;79.10
82379;BME280;72008;48.140;11.614;2024-02-15T01:21:01;95972.72;;;10.53;76.68
82379;BME280;72008;48.140;11.614;2024-02-15T01:22:01;95968.72;;;10.51;75.02
82379;BME280;72008;48.140;11.614;2024-02-15T01:23:02;95968.38;;;10.52;78.25
82379;BME280;72008;48.140;11.614;2024-02-15T01:24:03;95970.84;;;10.45;79.10
82379;BME280;72008;48.140;11.614;2024-02-15T01:25:04;95972.63;;;10.41;76.27
82379;BME280;72008;48.140;11.614;2024-02-15T01:26:04;95968.91;;;10.45;78.87
82379;BME280;72008;48.140;11.614;2024-02-15T01:27:05;95969.88;;;10.41;76.67
82379;BME280;72008;48.140;11.614;2024-02-15T01:28:06;95970.03;;;10.44;78.66
82379;BME280;72008;48.140;11.614;2024-02-15T01:29:06;95968.81;;;10.33;74.23
82379;BME280;72008;48.140;11.614;2024-02-15T01:30:07;95963.59;;;10.40;78.96
82379;BME280;72008;48.140;11.614;2024-02-15T01:31:08;95959.97;;;10.19;74.07
82379;BME280;72008;48.140;11.614;2024-02-15T01:32:08;95959.63;;;10.29;79.96
82379;BME280;72008;48.140;11.614;2024-02-15T01:33:09;95966.72;;;10.30;76.95
82379;BME280;72008;48.140;11.614;2024-02-15T01:34:10;95964.66;;;10.27;73.54
82379;BME280;72008;48.140;11.614;2024-02-15T01:35:10;95964.94;;;10.34;79.93
82379;BME280;72008;48.140;11.614;2024-02-15T01:36:17;95965.09;;;10.29;75.07
82379;BME280;72008;48.140;11.614;2024-02-15T01:37:18;95958.66;;;10.25;74.37
82379;BME280;72008;48.140;11.614;2024-02-15T01:38:19;95962.84;;;10.31;79.82
82379;BME280;72008;48.140;11.614;2024-02-15T01:39:19;95966.22;;;10.37;79.41
82379;BME280;72008;48.140;11.614;2024-02-15T01:40:20;95961.53;;;10.37;79.95
82379;BME280;72008;48.140;11.614;2024-02-15T01:41:20;95962.00;;;10.39;80.05
82379;BME280;72008;48.140;11.614;2024-02-15T01:42:58;95964.41;;;10.41;77.85
82379;BME280;72008;48.140;11.614;2024-02-15T01:43:58;95955.88;;;10.42;80.14
82379;BME280;72008;48.140;11.614;2024-02-15T01:44:58;95961.00;;;10.44;74.60
82379;BME280;72008;48.140;11.614;2024-02-15T01:45:59;95955.66;;;10.27;77.10
82379;BME280;72008;48.140;11.614;2024-02-15T01:47:00;95952.88;;;10.35;80.21
82379;BME280;72008;48.140;11.614;2024-02-15T01:48:01;95955.09;;;10.42;80.13
82379;BME280;72008;48.140;11.614;2024-02-15T01:49:02;95946.53;;;10.43;80.23
82379;BME280;72008;48.140;11.614;2024-02-15T01:50:03;95958.75;;;10.46;77.27
82379;BME280;72008;48.140;11.614;2024-02-15T01:51:06;95954.72;;;10.43;79.17
82379;BME280;72008;48.140;11.614;2024-02-15T01:52:08;95950.28;;;10.39;76.52
82379;BME280;72008;48.140;11.614;2024-02-15T01:53:11;95949.47;;;10.38;80.12
82379;BME280;72008;48.140;11.614;2024-02-15T01:54:13;95956.69;;;10.43;80.78
82379;BME280;72008;48.140;11.614;2024-02-15T01:55:15;95949.94;;;10.40;79.72
82379;BME280;72008;48.140;11.614;2024-02-15T01:56:17;95955.59;;;10.35;79.35
82379;BME280;72008;48.140;11.614;2024-02-15T01:57:18;95947.41;;;10.35;78.74
82379;BME280;72008;48.140;11.614;2024-02-15T01:58:19;95951.72;;;10.36;79.49
82379;BME280;72008;48.140;11.614;2024-02-15T01:59:22;95944.84;;;10.30;76.75
82379;BME280;72008;48.140;11.614;2024-02-15T02:00:29;95949.84;;;10.28;79.13
82379;BME280;72008;48.140;11.614;2024-02-15T02:01:31;95944.97;;;10.34;81.35
82379;BME280;72008;48.140;11.614;2024-02-15T02:02:34;95945.59;;;10.39;79.65
82379;BME280;72008;48.140;11.614;2024-02-15T02:03:35;95951.88;;;10.40;79.63
82379;BME280;72008;48.140;11.614;2024-02-15T02:04:37;95952.00;;;10.43;80.79
82379;BME280;72008;48.140;11.614;2024-02-15T02:05:38;95944.59;;;10.44;81.53
82379;BME280;72008;48.140;11.614;2024-02-15T02:06:38;95948.94;;;10.45;80.57
82379;BME280;72008;48.140;11.614;2024-02-15T02:07:39;95948.81;;;10.41;74.59
82379;BME280;72008;48.140;11.614;2024-02-15T02:08:39;95946.06;;;10.41;80.57
82379;BME280;72008;48.140;11.614;2024-02-15T02:09:47;95953.47;;;10.41;78.97
82379;BME280;72008;48.140;11.614;2024-02-15T02:10:47;95944.94;;;10.42;80.01
82379;BME280;72008;48.140;11.614;2024-02-15T02:11:48;95941.06;;;10.43;76.19
82379;BME280;72008;48.140;11.614;2024-02-15T02:12:49;95944.44;;;10.40;75.46
82379;BME280;72008;48.140;11.614;2024-02-15T02:13:49;95944.06;;;10.21;77.13
82379;BME280;72008;48.140;11.614;2024-02-15T02:14:50;95934.56;;;10.27;79.20
82379;BME280;72008;48.140;11.614;2024-02-15T02:15:53;95944.34;;;10.28;79.39
82379;BME280;72008;48.140;11.614;2024-02-15T02:16:53;95934.03;;;10.25;72.52
82379;BME280;72008;48.140;11.614;2024-02-15T02:17:53;95937.13;;;10.23;78.88
82379;BME280;72008;48.140;11.614;2024-02-15T02:18:55;95940.34;;;10.17;77.27
82379;BME280;72008;48.140;11.614;2024-02-15T02:19:56;95935.50;;;10.22;77.59
82379;BME280;72008;48.140;11.614;2024-02-15T02:20:56;95940.81;;;10.28;77.58
82379;BME280;72008;48.140;11.614;2024-02-15T02:21:56;95943.84;;;10.35;78.17
82379;BME280;72008;48.140;11.614;2024-02-15T02:23:03;95934.97;;;10.38;80.37
82379;BME280;72008;48.140;11.614;2024-02-15T02:24:12;95937.44;;;10.31;77.90
82379;BME280;72008;48.140;11.614;2024-02-15T02:25:13;95931.97;;;10.31;78.02
82379;BME280;72008;48.140;11.614;2024-02-15T02:26:14;95937.56;;;10.34;80.75
82379;BME280;72008;48.140;11.614;2024-02-15T02:27:17;95936.63;;;10.30;75.51
82379;BME280;72008;48.140;11.614;2024-02-15T02:28:18;95936.78;;;10.34;80.61
82379;BME280;72008;48.140;11.614;2024-02-15T02:29:19;95939.88;;;10.23;79.23
82379;BME280;72008;48.140;11.614;2024-02-15T02:30:20;95937.28;;;10.27;78.73
82379;BME280;72008;48.140;11.614;2024-02-15T02:31:21;95929.22;;;10.22;77.41
82379;BME280;72008;48.140;11.614;2024-02-15T02:32:21;95933.13;;;10.21;74.52
82379;BME280;72008;48.140;11.614;2024-02-15T02:33:21;95938.25;;;10.22;78.05
82379;BME280;72008;48.140;11.614;2024-02-15T02:34:22;95938.25;;;10.22;79.18
82379;BME280;72008;48.140;11.614;2024-02-15T02:35:23;95939.53;;;10.25;79.33
82379;BME280;72008;48.140;11.614;2024-02-15T02:36:23;95934.56;;;10.27;77.50
82379;BME280;72008;48.140;11.614;2024-02-15T02:37:24;95929.94;;;10.10;73.28
82379;BME280;72008;48.140;11.614;2024-02-15T02:38:25;95936.03;;;10.16;79.59
82379;BME280;72008;48.140;11.614;2024-02-15T02:39:25;95932.16;;;10.17;80.29
82379;BME280;72008;48.140;11.614;2024-02-15T02:40:25;95930.69;;;10.19;74.48
82379;BME280;72008;48.140;11.614;2024-02-15T02:41:27;95940.31;;;10.25;81.41
82379;BME280;72008;48.140;11.614;2024-02-15T02:42:27;95932.16;;;10.17;73.71
82379;BME280;72008;48.140;11.614;2024-02-15T02:43:28;95935.38;;;10.19;78.49
82379;BME280;72008;48.140;11.614;2024-02-15T02:44:28;95936.81;;;10.16;78.54
82379;BME280;72008;48.140;11.614;2024-02-15T02:45:29;95934.72;;;10.22;76.59
82379;BME280;72008;48.140;11.614;2024-02-15T02:46:29;95938.59;;;10.21;77.18
82379;BME280;72008;48.140;11.614;2024-02-15T02:47:29;95940.66;;;10.24;78.60
82379;BME280;72008;48.140;11.614;2024-02-15T02:48:30;95937.16;;;10.15;75.48
82379;BME280;72008;48.140;11.614;2024-02-15T02:49:30;95937.00;;;10.11;78.71
82379;BME280;72008;48.140;11.614;2024-02-15T02:50:31;95937.47;;;10.13;79.99
82379;BME280;72008;48.140;11.614;2024-02-15T02:51:31;95939.91;;;10.15;78.48
82379;BME280;72008;48.140;11.614;2024-02-15T02:52:32;95937.78;;;10.20;77.74
82379;BME280;72008;48.140;11.614;2024-02-15T02:53:32;95938.25;;;10.22;76.24
82379;BME280;72008;48.140;11.614;2024-02-15T02:54:32;95941.47;;;10.24;77.80
82379;BME280;72008;48.140;11.614;2024-02-15T02:55:33;95931.16;;;10.30;79.12
82379;BME280;72008;48.140;11.614;2024-02-15T02:56:33;95936.78;;;10.25;75.07
82379;BME280;72008;48.140;11.614;2024-02-15T02:57:38;95933.75;;;10.27;78.87
82379;BME280;72008;48.140;11.614;2024-02-15T02:58:38;95932.81;;;10.14;73.31
82379;BME280;72008;48.140;11.614;2024-02-15T02:59:39;95929.09;;;10.18;77.33
82379;BME280;72008;48.140;11.614;2024-02-15T03:00:52;95927.81;;;10.16;75.96
82379;BME280;72008;48.140;11.614;2024-02-15T03:01:52;95923.75;;;10.22;80.80
82379;BME280;72008;48.140;11.614;2024-02-15T03:02:52;95920.88;;;10.27;80.52
82379;BME280;72008;48.140;11.614;2024-02-15T03:03:53;95923.88;;;10.34;80.70
82379;BME280;72008;48.140;11.614;2024-02-15T03:04:54;95918.09;;;10.36;79.73
82379;BME280;72008;48.140;11.614;2024-02-15T03:05:54;95922.63;;;10.23;79.33
82379;BME280;72008;48.140;11.614;2024-02-15T03:06:54;95925.34;;;10.32;80.21
82379;BME280;72008;48.140;11.614;2024-02-15T03:07:55;95927.41;;;10.35;80.20
82379;BME280;72008;48.140;11.614;2024-02-15T03:08:55;95927.41;;;10.35;78.67
82379;BME280;72008;48.140;11.614;2024-02-15T03:09:56;95930.63;;;10.37;80.18
82379;BME280;72008;48.140;11.614;2024-02-15T03:10:56;95930.97;;;10.35;77.96
82379;BME280;72008;48.140;11.614;2024-02-15T03:11:57;95927.09;;;10.36;80.44
82379;BME280;72008;48.140;11.614;2024-02-15T03:12:57;95920.47;;;10.37;80.71
82379;BME280;72008;48.140;11.614;2024-02-15T03:13:57;95933.06;;;10.38;80.70
82379;BME280;72008;48.140;11.614;2024-02-15T03:14:58;95923.56;;;10.36;76.76
82379;BME280;72008;48.140;11.614;2024-02-15T03:16:04;95928.88;;;10.32;80.08
82379;BME280;72008;48.140;11.614;2024-02-15T03:17:05;95929.09;;;10.27;77.42
82379;BME280;72008;48.140;11.614;2024-02-15T03:18:05;95933.56;;;10.32;81.76
82379;BME280;72008;48.140;11.614;2024-02-15T03:19:06;95922.94;;;10.30;79.89
82379;BME280;72008;48.140;11.614;2024-02-15T03:20:08;95926.63;;;10.34;80.31
82379;BME280;72008;48.140;11.614;2024-02-15T03:21:17;95928.06;;;10.32;79.54
82379;BME280;72008;48.140;11.614;2024-02-15T03:22:17;95933.41;;;10.28;79.65
82379;BME280;72008;48.140;11.614;2024-02-15T03:23:18;95929.53;;;10.29;78.10
82379;BME280;72008;48.140;11.614;2024-02-15T03:24:18;95931.03;;;10.27;77.64
82379;BME280;72008;48.140;11.614;2024-02-15T03:25:18;95936.78;;;10.25;76.33
82379;BME280;72008;48.140;11.614;2024-02-15T03:26:29;95940.47;;;10.29;79.58
82379;BME280;72008;48.140;11.614;2024-02-15T03:27:30;95940.16;;;10.31;79.94
82379;BME280;72008;48.140;11.614;2024-02-15T03:28:30;95938.09;;;10.28;79.44
82379;BME280;72008;48.140;11.614;2024-02-15T03:29:31;95943.69;;;10.31;81.16
82379;BME280;72008;48.140;11.614;2024-02-15T03:30:32;95934.03;;;10.34;79.38
82379;BME280;72008;48.140;11.614;2024-02-15T03:31:34;95936.28;;;10.32;80.17
82379;BME280;72008;48.140;11.614;2024-02-15T03:32:35;95939.81;;;10.32;82.04
82379;BME280;72008;48.140;11.614;2024-02-15T03:33:35;95933.72;;;10.35;80.53
82379;BME280;72008;48.140;11.614;2024-02-15T03:34:35;95934.16;;;10.37;81.43
82379;BME280;72008;48.140;11.614;2024-02-15T03:35:36;95927.91;;;10.37;80.29
82379;BME280;72008;48.140;11.614;2024-02-15T03:36:36;95931.44;;;10.37;81.35
82379;BME280;72008;48.140;11.614;2024-02-15T03:37:37;95929.50;;;10.38;81.47
82379;BME280;72008;48.140;11.614;2024-02-15T03:38:37;95935.50;;;10.31;76.47
82379;BME280;72008;48.140;11.614;2024-02-15T03:39:37;95928.88;;;10.32;79.96
82379;BME280;72008;48.140;11.614;2024-02-15T03:40:38;95930.50;;;10.24;79.10
82379;BME280;72008;48.140;11.614;2024-02-15T03:41:38;95933.28;;;10.16;75.00
82379;BME280;72008;48.140;11.614;2024-02-15T03:42:39;95941.78;;;10.23;79.07
82379;BME280;72008;48.140;11.614;2024-02-15T03:43:39;95939.38;;;10.21;79.48
82379;BME280;72008;48.140;11.614;2024-02-15T03:44:40;95935.50;;;10.22;81.12
82379;BME280;72008;48.140;11.614;2024-02-15T03:45:40;95933.91;;;10.21;80.00
82379;BME280;72008;48.140;11.614;2024-02-15T03:46:40;95931.69;;;10.15;78.68
82379;BME280;72008;48.140;11.614;2024-02-15T03:47:41;95930.22;;;10.17;80.24
82379;BME280;72008;48.140;11.614;2024-02-15T03:48:42;95937.91;;;10.24;80.94
82379;BME280;72008;48.140;11.614;2024-02-15T03:49:43;95935.38;;;10.19;77.87
82379;BME280;72008;48.140;11.614;2024-02-15T03:50:43;95928.91;;;10.23;78.11
82379;BME280;72008;48.140;11.614;2024-02-15T03:51:43;95931.81;;;10.27;80.97
82379;BME280;72008;48.140;11.614;2024-02-15T03:52:45;95941.97;;;10.27;76.30
82379;BME280;72008;48.140;11.614;2024-02-15T03:54:23;95937.28;;;10.27;80.89
82379;BME280;72008;48.140;11.614;2024-02-15T03:55:24;95931.16;;;10.30;79.30
82379;BME280;72008;48.140;11.614;2024-02-15T03:56:24;95939.69;;;10.29;79.60
82379;BME280;72008;48.140;11.614;2024-02-15T03:57:25;95931.31;;;10.25;75.91
82379;BME280;72008;48.140;11.614;2024-02-15T03:58:26;95944.19;;;10.24;78.41
82379;BME280;72008;48.140;11.614;2024-02-15T03:59:46;95941.78;;;10.23;78.31
82379;BME280;72008;48.140;11.614;2024-02-15T04:00:48;95938.59;;;10.21;76.17
82379;BME280;72008;48.140;11.614;2024-02-15T04:01:49;95942.13;;;10.21;80.34
82379;BME280;72008;48.140;11.614;2024-02-15T04:02:49;95940.53;;;10.20;77.89
82379;BME280;72008;48.140;11.614;2024-02-15T04:03:49;95937.91;;;10.24;78.54
82379;BME280;72008;48.140;11.614;2024-02-15T04:04:50;95939.03;;;10.23;75.75
82379;BME280;72008;48.140;11.614;2024-02-15T04:05:50;95938.38;;;10.26;81.25
82379;BME280;72008;48.140;11.614;2024-02-15T04:06:52;95936.50;;;10.27;77.92
82379;BME280;72008;48.140;11.614;2024-02-15T04:07:52;95941.31;;;10.30;81.18
82379;BME280;72008;48.140;11.614;2024-02-15T04:08:52;95941.97;;;10.27;79.29
82379;BME280;72008;48.140;11.614;2024-02-15T04:09:53;95940.19;;;10.22;77.99
82379;BME280;72008;48.140;11.614;2024-02-15T04:10:54;95936.69;;;10.13;78.44
82379;BME280;72008;48.140;11.614;2024-02-15T04:11:54;95939.25;;;10.18;79.16
82379;BME280;72008;48.140;11.614;2024-02-15T04:12:55;95939.56;;;10.16;79.08
82379;BME280;72008;48.140;11.614;2024-02-15T04:13:55;95938.94;;;10.11;73.94
82379;BME280;72008;48.140;11.614;2024-02-15T04:14:55;95947.28;;;10.14;78.51
82379;BME280;72008;48.140;11.614;2024-02-15T04:15:56;95950.53;;;10.08;74.26
82379;BME280;72008;48.140;11.614;2024-02-15T04:16:56;95938.34;;;9.96;79.10
82379;BME280;72008;48.140;11.614;2024-02-15T04:17:57;95944.16;;;9.95;79.04
82379;BME280;72008;48.140;11.614;2024-02-15T04:18:57;95937.78;;;9.82;72.55
82379;BME280;72008;48.140;11.614;2024-02-15T04:20:15;95941.56;;;9.98;81.05
82379;BME280;72008;48.140;11.614;2024-02-15T04:21:15;95941.72;;;10.02;78.71
82379;BME280;72008;48.140;11.614;2024-02-15T04:22:16;95936.63;;;9.92;75.12
82379;BME280;72008;48.140;11.614;2024-02-15T04:23:17;95943.50;;;9.98;78.52
82379;BME280;72008;48.140;11.614;2024-02-15T04:24:17;95942.38;;;9.99;78.47
82379;BME280;72008;48.140;11.614;2024-02-15T04:26:56;95954.34;;;9.77;76.10
82379;BME280;72008;48.140;11.614;2024-02-15T04:27:57;95946.44;;;9.84;79.60
82379;BME280;72008;48.140;11.614;2024-02-15T04:28:58;95944.53;;;9.76;74.92
82379;BME280;72008;48.140;11.614;2024-02-15T04:29:58;95948.28;;;9.63;74.00
82379;BME280;72008;48.140;11.614;2024-02-15T04:30:59;95956.28;;;9.76;76.29
82379;BME280;72008;48.140;11.614;2024-02-15T04:31:59;95942.09;;;9.83;78.21
82379;BME280;72008;48.140;11.614;2024-02-15T04:32:59;95943.38;;;9.94;80.22
82379;BME280;72008;48.140;11.614;2024-02-15T04:34:00;95947.03;;;9.98;75.87
82379;BME280;72008;48.140;11.614;2024-02-15T04:35:00;95946.94;;;9.77;73.96
82379;BME280;72008;48.140;11.614;2024-02-15T04:36:01;95946.75;;;9.91;80.76
82379;BME280;72008;48.140;11.614;2024-02-15T04:37:03;95945.75;;;9.96;77.84
82379;BME280;72008;48.140;11.614;2024-02-15T04:38:03;95948.97;;;9.98;77.71
82379;BME280;72008;48.140;11.614;2024-02-15T04:39:04;95946.88;;;10.03;80.90
82379;BME280;72008;48.140;11.614;2024-02-15T04:40:05;95949.28;;;9.96;79.73
82379;BME280;72008;48.140;11.614;2024-02-15T04:41:06;95945.91;;;9.99;77.48
82379;BME280;72008;48.140;11.614;2024-02-15T04:42:06;95944.69;;;9.88;73.38
82379;BME280;72008;48.140;11.614;2024-02-15T04:43:06;95942.41;;;9.90;80.44
82379;BME280;72008;48.140;11.614;2024-02-15T04:44:07;95947.56;;;9.92;78.86
82379;BME280;72008;48.140;11.614;2024-02-15T04:45:08;95952.66;;;10.02;81.14
82379;BME280;72008;48.140;11.614;2024-02-15T04:46:08;95945.59;;;10.01;79.69
82379;BME280;72008;48.140;11.614;2024-02-15T04:47:09;95939.44;;;10.04;81.93
82379;BME280;72008;48.140;11.614;2024-02-15T04:48:37;95948.19;;;9.97;78.15
82379;BME280;72008;48.140;11.614;2024-02-15T04:49:37;95947.03;;;9.98;80.79
82379;BME280;72008;48.140;11.614;2024-02-15T04:50:37;95949.28;;;9.96;75.47
82379;BME280;72008;48.140;11.614;2024-02-15T04:51:59;95949.66;;;9.86;75.26
82379;BME280;72008;48.140;11.614;2024-02-15T04:53:01;95952.38;;;9.95;82.19
82379;BME280;72008;48.140;11.614;2024-02-15T04:54:02;95947.41;;;9.88;79.49
82379;BME280;72008;48.140;11.614;2024-02-15T04:55:02;95951.09;;;9.92;81.82
82379;BME280;72008;48.140;11.614;2024-02-15T04:56:03;95946.28;;;9.89;74.53
82379;BME280;72008;48.140;11.614;2024-02-15T04:57:04;95944.16;;;9.95;80.69
82379;BME280;72008;48.140;11.614;2024-02-15T04:58:04;95946.75;;;9.91;76.91
82379;BME280;72008;48.140;11.614;2024-02-15T04:59:06;95949.31;;;9.88;80.39
82379;BME280;72008;48.140;11.614;2024-02-15T05:00:07;95947.56;;;9.92;81.66
82379;BME280;72008;48.140;11.614;2024-02-15T05:01:09;95946.09;;;9.94;79.55
82379;BME280;72008;48.140;11.614;2024-02-15T05:02:09;95946.09;;;9.94;80.17
82379;BME280;72008;48.140;11.614;2024-02-15T05:03:10;95944.03;;;9.91;76.11
82379;BME280;72008;48.140;11.614;2024-02-15T05:04:11;95944.16;;;9.95;82.25
82379;BME280;72008;48.140;11.614;2024-02-15T05:05:12;95941.75;;;9.93;80.16
82379;BME280;72008;48.140;11.614;2024-02-15T05:06:12;95938.22;;;9.93;81.11
82379;BME280;72008;48.140;11.614;2024-02-15T05:07:17;95940.31;;;9.87;80.94
82379;BME280;72008;48.140;11.614;2024-02-15T05:08:17;95941.94;;;9.88;80.56
82379;BME280;72008;48.140;11.614;2024-02-15T05:09:18;95937.91;;;9.86;79.18
82379;BME280;72008;48.140;11.614;2024-02-15T05:10:18;95943.53;;;9.89;78.71
82379;BME280;72008;48.140;11.614;2024-02-15T05:11:28;95944.03;;;9.91;82.11
82379;BME280;72008;48.140;11.614;2024-02-15T05:12:28;95935.81;;;9.91;81.27
82379;BME280;72008;48.140;11.614;2024-02-15T05:13:28;95935.50;;;9.84;76.04
82379;BME280;72008;48.140;11.614;2024-02-15T05:14:29;95930.19;;;9.88;79.54
82379;BME280;72008;48.140;11.614;2024-02-15T05:15:51;95943.69;;;9.84;76.97
82379;BME280;72008;48.140;11.614;2024-02-15T05:16:51;95934.72;;;9.84;76.52
82379;BME280;72008;48.140;11.614;2024-02-15T05:17:51;95926.19;;;9.85;80.94
82379;BME280;72008;48.140;11.614;2024-02-15T05:18:52;95928.75;;;9.82;77.07
82379;BME280;72008;48.140;11.614;2024-02-15T05:19:52;95930.53;;;9.86;81.35
82379;BME280;72008;48.140;11.614;2024-02-15T05:20:52;95932.47;;;9.86;80.13
82379;BME280;72008;48.140;11.614;2024-02-15T05:22:15;95932.31;;;9.82;80.54
82379;BME280;72008;48.140;11.614;2024-02-15T05:23:15;95927.50;;;9.79;78.73
82379;BME280;72008;48.140;11.614;2024-02-15T05:24:17;95926.69;;;9.78;79.72
82379;BME280;72008;48.140;11.614;2024-02-15T05:25:20;95926.88;;;9.73;80.42